PWSweather.com
Personal Weather Stations
Station Observations
BLACKWELL
Blackwell, AlfretonGB DE55

BlackwellAlfretonGB DE55

Lat: 53.12076, Lon: -1.354978

Elevation: 410

Station Type: Vantage Pro

High Low Average
Temperature 48.2°F9.0°C 36.3°F2.4°C 41.2°F5.1°C
Dew Point 38.7°F3.7°C 34.0°F1.1°C 36.5°F2.5°C
Winds 3.0 mph 4.8 kmh Calm Calm 1.0 mph SW1.6 kmh SW
Wind Gusts 10.0 mph16.1 kmh 2.0 mph3.2 kmh 5.0 mph8.0 kmh
Humidity 92% 61% 84%
Pressure 29.92 in1013.2 mb 29.34 in993.6 mb -
Precipitation 0.04 in1.0 mm - -
Hour Temp Dew Point Humidity Winds Wind Gusts Pressure Precip Precip Rate Daily Precip Total
12:34 AM 38.7°F3.7°C 36.5°F2.5°C 92% 2.0 mph SW3.2 kmh SW 6.0 mph9.7 kmh 29.34 in993.6 mb 0.04 in1.0 mm 0.07 in1.8 mm 0.02 in0.5 mm
01:34 AM 38.8°F3.8°C 36.7°F2.6°C 92% 2.0 mph SW3.2 kmh SW 8.0 mph12.9 kmh 29.36 in994.2 mb 0.00 in0.0 mm 0.00 in0.0 mm 0.02 in0.5 mm
02:34 AM 37.2°F2.9°C 34.9°F1.6°C 91% 1.0 mph WSW1.6 kmh WSW 3.0 mph4.8 kmh 29.39 in995.3 mb 0.01 in0.3 mm 0.00 in0.0 mm 0.02 in0.5 mm
03:34 AM 37.2°F2.9°C 35.1°F1.7°C 92% Calm Calm 3.0 mph4.8 kmh 29.41 in995.9 mb 0.00 in0.0 mm 0.00 in0.0 mm 0.02 in0.5 mm
04:34 AM 37.0°F2.8°C 35.1°F1.7°C 92% 1.0 mph SW1.6 kmh SW 4.0 mph6.4 kmh 29.43 in996.6 mb 0.00 in0.0 mm 0.00 in0.0 mm 0.02 in0.5 mm
05:34 AM 36.9°F2.7°C 34.0°F1.1°C 89% Calm Calm 2.0 mph3.2 kmh 29.46 in997.6 mb 0.00 in0.0 mm 0.00 in0.0 mm 0.02 in0.5 mm
06:34 AM 36.3°F2.4°C 34.0°F1.1°C 91% Calm Calm 2.0 mph3.2 kmh 29.49 in998.6 mb 0.01 in0.3 mm 0.00 in0.0 mm 0.03 in0.8 mm
07:34 AM 37.6°F3.1°C 34.7°F1.5°C 89% 2.0 mph SW3.2 kmh SW 6.0 mph9.7 kmh 29.51 in999.3 mb 0.00 in0.0 mm 0.00 in0.0 mm 0.03 in0.8 mm
08:34 AM 38.5°F3.6°C 34.7°F1.5°C 86% 2.0 mph SW3.2 kmh SW 8.0 mph12.9 kmh 29.54 in1000.3 mb 0.00 in0.0 mm 0.00 in0.0 mm 0.03 in0.8 mm
09:34 AM 40.1°F4.5°C 36.0°F2.2°C 85% 1.0 mph SW1.6 kmh SW 5.0 mph8.0 kmh 29.57 in1001.4 mb 0.00 in0.0 mm 0.00 in0.0 mm 0.03 in0.8 mm
10:34 AM 40.6°F4.8°C 36.5°F2.5°C 85% 1.0 mph SW1.6 kmh SW 4.0 mph6.4 kmh 29.59 in1002.0 mb 0.00 in0.0 mm 0.00 in0.0 mm 0.03 in0.8 mm
11:34 AM 41.0°F5.0°C 37.2°F2.9°C 86% 1.0 mph SW1.6 kmh SW 4.0 mph6.4 kmh 29.61 in1002.7 mb 0.01 in0.3 mm 0.00 in0.0 mm 0.04 in1.0 mm
12:34 PM 45.1°F7.3°C 37.8°F3.2°C 75% 2.0 mph SW3.2 kmh SW 10.0 mph16.1 kmh 29.62 in1003.0 mb 0.00 in0.0 mm 0.00 in0.0 mm 0.04 in1.0 mm
01:34 PM 46.2°F7.9°C 36.3°F2.4°C 68% 2.0 mph SW3.2 kmh SW 6.0 mph9.7 kmh 29.62 in1003.0 mb 0.00 in0.0 mm 0.00 in0.0 mm 0.04 in1.0 mm
02:34 PM 48.2°F9.0°C 35.4°F1.9°C 61% 2.0 mph SW3.2 kmh SW 6.0 mph9.7 kmh 29.65 in1004.1 mb 0.00 in0.0 mm 0.00 in0.0 mm 0.04 in1.0 mm
03:34 PM 46.8°F8.2°C 36.5°F2.5°C 67% 2.0 mph SW3.2 kmh SW 6.0 mph9.7 kmh 29.68 in1005.1 mb 0.00 in0.0 mm 0.00 in0.0 mm 0.04 in1.0 mm
04:34 PM 45.7°F7.6°C 37.4°F3.0°C 73% 3.0 mph SW4.8 kmh SW 8.0 mph12.9 kmh 29.70 in1005.8 mb 0.00 in0.0 mm 0.00 in0.0 mm 0.04 in1.0 mm
05:34 PM 43.2°F6.2°C 37.4°F3.0°C 80% 1.0 mph SW1.6 kmh SW 4.0 mph6.4 kmh 29.73 in1006.8 mb 0.00 in0.0 mm 0.00 in0.0 mm 0.04 in1.0 mm
06:34 PM 42.3°F5.7°C 36.9°F2.7°C 81% 1.0 mph SW1.6 kmh SW 3.0 mph4.8 kmh 29.77 in1008.1 mb 0.00 in0.0 mm 0.00 in0.0 mm 0.04 in1.0 mm
07:34 PM 41.7°F5.4°C 37.2°F2.9°C 84% Calm Calm 2.0 mph3.2 kmh 29.80 in1009.1 mb 0.00 in0.0 mm 0.00 in0.0 mm 0.04 in1.0 mm
08:34 PM 42.3°F5.7°C 38.5°F3.6°C 86% Calm Calm 4.0 mph6.4 kmh 29.83 in1010.2 mb 0.00 in0.0 mm 0.00 in0.0 mm 0.04 in1.0 mm
09:34 PM 42.3°F5.7°C 38.7°F3.7°C 87% Calm Calm 3.0 mph4.8 kmh 29.86 in1011.2 mb 0.00 in0.0 mm 0.00 in0.0 mm 0.04 in1.0 mm
10:34 PM 42.3°F5.7°C 38.7°F3.7°C 87% Calm Calm 4.0 mph6.4 kmh 29.90 in1012.5 mb 0.00 in0.0 mm 0.00 in0.0 mm 0.04 in1.0 mm
11:34 PM 42.1°F5.6°C 38.7°F3.7°C 88% Calm Calm 2.0 mph3.2 kmh 29.92 in1013.2 mb 0.00 in0.0 mm 0.00 in0.0 mm 0.04 in1.0 mm